Terminal Aerodrome Forecast
Issued by NWS

Home | Current Version | Previous Version | Text Only | Print | Product List | Glossary On
Versions: 1 2 3 4 5 6 7 8 9 10 11 12 13 14 15
000
FTAK31 PAJN 210536
TAFAGY
TAF
PAGY 210536Z 2106/2206 04005KT P6SM SCT015 SCT150
      TEMPO 2106/2108 6SM -SHSN BKN015
     FM210900 02010KT P6SM FEW150
     FM211200 02010G18KT P6SM SKC
     FM212100 VRB05KT P6SM SCT150
      AMD LTD TO CLD VIS AND WIND=

USA.gov is the U.S. government's official web portal to all federal, state and local government web resources and services.